Amidon, North Dakota
Current Conditions -  °F | °C
As of 9:56 PM on Sunday 19 Oct 2014 (Local Time) from KDIK Reporting Station
Clear Clear  
Wind Chill: 40°   Ceiling: Unl
Heat Index: 44°   Visibility: 10mi
Dew Point: 35°   Wind: 8mph
Humidity: 71%   Direction: 180°S
Pressure: 30.02"   Gusts: NA
Location:  46.48°N, 103.32°W
Report Text: KDIK 200356Z AUTO 18007KT 10SM CLR 07/02 A3002 RMK AO2 SLP169 T00670017
Loading
Personal Weather Stations






























Interactive Weather Map
Tropical Storm Tracking
New forecast layout! Learn more

10-Day Weather Forecast

Advertisements
Track Severe Weather on mobile